Time;durP1;ratioP1;P1;durP2;ratioP2;P2;SDS_P1;SDS_P2;PMS_P1;PMS_P2;Temp;Humidity;BMP_temperature;BMP_pressure;BME280_temperature;BME280_humidity;BME280_pressure;Samples;Min_cycle;Max_cycle;Signal;HPM_P1;HPM_P2
2023/09/23 00:00:36;;;;;;;19.20;6.97;;;;;;;20.35;95.91;95251.53;5074284;28;20228;-77
2023/09/23 00:03:02;;;;;;;16.20;6.68;;;;;;;20.49;95.24;95250.84;5023255;28;20282;-77
2023/09/23 00:05:29;;;;;;;19.80;7.10;;;;;;;20.36;95.62;95253.91;5060396;28;20259;-77
2023/09/23 00:07:55;;;;;;;18.15;6.85;;;;;;;20.24;96.35;95247.13;5035805;28;20266;-77
2023/09/23 00:10:20;;;;;;;15.20;7.20;;;;;;;20.11;96.99;95248.31;5036909;28;20292;-77
2023/09/23 00:12:46;;;;;;;23.08;7.35;;;;;;;20.21;95.89;95248.41;5060927;28;20581;-77
2023/09/23 00:15:11;;;;;;;25.17;6.93;;;;;;;20.19;96.36;95250.53;5066055;28;20220;-78
2023/09/23 00:17:37;;;;;;;21.00;7.38;;;;;;;20.28;96.26;95245.56;5044541;28;20714;-77
2023/09/23 00:20:10;;;;;;;21.85;7.03;;;;;;;20.31;96.05;95250.41;5059839;28;20229;-77
2023/09/23 00:22:40;;;;;;;20.15;7.05;;;;;;;20.23;96.59;95253.53;5067568;28;20236;-77
2023/09/23 00:25:06;;;;;;;23.10;7.35;;;;;;;20.20;96.62;95248.69;5058094;28;20221;-76
2023/09/23 00:27:31;;;;;;;16.38;6.88;;;;;;;20.08;96.99;95252.25;5051861;28;20233;-77
2023/09/23 00:29:57;;;;;;;18.08;6.78;;;;;;;20.25;96.53;95248.75;5051025;28;20852;-77
2023/09/23 00:32:23;;;;;;;20.75;7.30;;;;;;;20.30;96.55;95249.59;5065278;28;20239;-77
2023/09/23 00:34:48;;;;;;;17.42;6.97;;;;;;;20.20;96.62;95249.47;5058449;28;20240;-77
2023/09/23 00:37:15;;;;;;;20.52;7.60;;;;;;;20.12;96.48;95244.59;5061623;28;20262;-77
2023/09/23 00:39:41;;;;;;;18.87;7.33;;;;;;;20.24;96.38;95245.28;5043014;28;20226;-77
2023/09/23 00:42:10;;;;;;;19.83;7.13;;;;;;;20.28;96.38;95246.38;5065467;28;20285;-77
2023/09/23 00:44:39;;;;;;;21.13;7.00;;;;;;;20.22;95.79;95241.25;5036471;28;20231;-77
2023/09/23 00:47:05;;;;;;;22.80;7.22;;;;;;;20.28;96.29;95250.91;5052296;28;20626;-77
2023/09/23 00:49:32;;;;;;;18.95;6.63;;;;;;;20.38;95.71;95241.16;5071222;28;20224;-77
2023/09/23 00:51:58;;;;;;;16.97;7.30;;;;;;;20.31;96.09;95240.56;5034949;28;20292;-77
2023/09/23 00:54:24;;;;;;;21.50;7.30;;;;;;;20.23;96.75;95237.56;5055285;28;20224;-77
2023/09/23 00:56:50;;;;;;;18.38;7.18;;;;;;;20.23;96.23;95233.03;5037465;28;20229;-77
2023/09/23 00:59:17;;;;;;;17.08;7.30;;;;;;;20.02;97.30;95237.34;5049337;28;20239;-77
2023/09/23 01:01:42;;;;;;;24.67;7.13;;;;;;;19.98;97.69;95238.91;5073987;28;20229;-77
2023/09/23 01:04:13;;;;;;;21.57;7.33;;;;;;;19.93;98.08;95238.03;5045813;28;20237;-77
2023/09/23 01:06:38;;;;;;;19.73;7.13;;;;;;;19.71;99.38;95240.69;5069171;28;20239;-77
2023/09/23 01:09:10;;;;;;;17.27;7.22;;;;;;;19.65;99.51;95239.06;5069189;28;20228;-77
2023/09/23 01:11:36;;;;;;;21.08;7.88;;;;;;;19.90;98.24;95247.28;5055342;28;20237;-77
2023/09/23 01:14:02;;;;;;;24.77;7.50;;;;;;;19.55;99.60;95244.22;5049874;28;20366;-77
2023/09/23 01:16:28;;;;;;;18.40;6.80;;;;;;;19.43;100.00;95236.41;5065428;28;20765;-77
2023/09/23 01:18:53;;;;;;;19.90;7.27;;;;;;;19.34;100.00;95229.06;5063375;28;20242;-76
2023/09/23 01:21:19;;;;;;;18.30;6.95;;;;;;;19.43;100.00;95230.28;5069317;28;20232;-77
2023/09/23 01:23:46;;;;;;;18.92;7.13;;;;;;;19.78;99.90;95241.31;5056928;28;20228;-77
2023/09/23 01:26:12;;;;;;;21.35;7.68;;;;;;;19.80;98.47;95241.09;5058536;28;20247;-77
2023/09/23 01:28:37;;;;;;;19.55;7.30;;;;;;;19.43;99.99;95233.75;5051350;28;20232;-77
2023/09/23 01:31:04;;;;;;;20.70;6.88;;;;;;;19.53;100.00;95233.06;5055752;28;20623;-77
2023/09/23 01:33:30;;;;;;;17.92;7.13;;;;;;;19.39;100.00;95221.22;5054892;28;20231;-77
2023/09/23 01:36:02;;;;;;;21.67;7.93;;;;;;;19.27;100.00;95223.13;5068297;28;20319;-77
2023/09/23 01:38:31;;;;;;;23.13;7.53;;;;;;;19.59;100.00;95242.69;5050772;28;20227;-75
2023/09/23 01:40:56;;;;;;;21.08;7.10;;;;;;;19.52;100.00;95247.38;5063780;28;20228;-75
2023/09/23 01:43:22;;;;;;;21.25;7.50;;;;;;;19.33;100.00;95236.22;5070372;28;20224;-74
2023/09/23 01:45:48;;;;;;;23.23;7.85;;;;;;;19.42;100.00;95233.97;5060996;28;21424;-75
2023/09/23 01:48:14;;;;;;;17.20;7.13;;;;;;;19.46;100.00;95235.09;5047026;28;20240;-75
2023/09/23 01:50:41;;;;;;;22.10;7.53;;;;;;;19.32;100.00;95231.16;5043639;28;20254;-75
2023/09/23 01:53:08;;;;;;;19.90;7.45;;;;;;;19.46;100.00;95229.78;5054518;28;20231;-75
2023/09/23 01:55:34;;;;;;;21.13;7.70;;;;;;;19.38;100.00;95240.81;5052059;28;20310;-75
2023/09/23 01:58:00;;;;;;;19.97;7.53;;;;;;;19.60;100.00;95241.66;5055832;28;20257;-75
2023/09/23 02:00:32;;;;;;;18.83;7.17;;;;;;;19.43;100.00;95230.28;5066781;28;20231;-75
2023/09/23 02:02:57;;;;;;;18.10;7.60;;;;;;;19.43;100.00;95240.91;5059058;28;20240;-75
2023/09/23 02:05:27;;;;;;;18.00;7.23;;;;;;;19.38;100.00;95240.81;5052193;28;20725;-75
2023/09/23 02:07:53;;;;;;;20.47;7.73;;;;;;;19.32;100.00;95228.50;5062779;28;20262;-76
2023/09/23 02:10:21;;;;;;;28.08;7.60;;;;;;;19.37;100.00;95229.41;5065877;28;20232;-75
2023/09/23 02:12:47;;;;;;;22.75;7.70;;;;;;;19.58;100.00;95245.59;5072744;28;20243;-75
2023/09/23 02:15:15;;;;;;;20.92;7.50;;;;;;;19.52;100.00;95247.38;5044916;28;20293;-75
2023/09/23 02:17:42;;;;;;;20.63;7.57;;;;;;;19.43;100.00;95239.03;5053143;28;20758;-75
2023/09/23 02:20:17;;;;;;;22.47;7.57;;;;;;;19.57;100.00;95243.97;5071624;28;21051;-74
2023/09/23 02:22:43;;;;;;;19.13;7.67;;;;;;;19.46;100.00;95245.72;5061497;28;20233;-73
2023/09/23 02:25:12;;;;;;;21.23;7.73;;;;;;;19.42;100.00;95244.59;5047385;28;20321;-73
2023/09/23 02:27:38;;;;;;;22.45;7.80;;;;;;;19.25;100.00;95251.78;5068736;28;20438;-75
2023/09/23 02:30:09;;;;;;;21.55;8.02;;;;;;;19.08;100.00;95258.97;5062273;28;20236;-75
2023/09/23 02:32:42;;;;;;;23.80;7.90;;;;;;;18.93;100.00;95253.44;5053974;28;20737;-75
2023/09/23 02:35:11;;;;;;;19.45;7.53;;;;;;;19.02;100.00;95254.63;5050767;28;20858;-75
2023/09/23 02:37:40;;;;;;;20.57;7.40;;;;;;;19.03;100.00;95257.03;5056424;28;20239;-75
2023/09/23 02:40:11;;;;;;;21.23;8.00;;;;;;;19.13;100.00;95251.09;5063486;28;20227;-75
2023/09/23 02:42:37;;;;;;;15.98;7.50;;;;;;;18.84;100.00;95261.00;5058489;28;20320;-75
2023/09/23 02:45:05;;;;;;;19.30;7.67;;;;;;;18.99;100.00;95271.00;5039643;28;20345;-75
2023/09/23 02:47:30;;;;;;;21.90;7.63;;;;;;;19.13;100.00;95272.31;5069043;28;20229;-75
2023/09/23 02:49:56;;;;;;;20.53;7.93;;;;;;;19.08;100.00;95267.72;5052183;28;20626;-75
2023/09/23 02:52:22;;;;;;;23.97;7.90;;;;;;;19.18;100.00;95275.00;5050428;28;20236;-75
2023/09/23 02:54:48;;;;;;;21.67;8.23;;;;;;;19.20;100.00;95275.59;5061553;28;20244;-74
2023/09/23 02:57:14;;;;;;;21.17;7.73;;;;;;;19.20;100.00;95270.28;5063124;28;20752;-75
2023/09/23 02:59:42;;;;;;;21.63;7.63;;;;;;;19.36;100.00;95282.75;5068596;28;20256;-73
2023/09/23 03:02:08;;;;;;;19.90;7.57;;;;;;;19.21;100.00;95274.53;5070018;28;20216;-75
2023/09/23 03:04:34;;;;;;;17.30;7.40;;;;;;;19.21;100.00;95270.03;5051899;28;20255;-76
2023/09/23 03:07:01;;;;;;;18.17;7.63;;;;;;;19.15;100.00;95280.81;5040704;28;20229;-75
2023/09/23 03:09:32;;;;;;;21.63;7.53;;;;;;;19.20;100.00;95284.34;5059742;28;20249;-75
2023/09/23 03:11:57;;;;;;;23.23;7.70;;;;;;;19.06;100.00;95271.69;5038015;28;20324;-74
2023/09/23 03:14:27;;;;;;;23.00;7.63;;;;;;;19.10;100.00;95283.41;5070724;28;20780;-75
2023/09/23 03:16:54;;;;;;;21.33;7.80;;;;;;;19.09;100.00;95282.59;5037747;28;20512;-76
2023/09/23 03:19:27;;;;;;;19.23;7.70;;;;;;;18.89;100.00;95279.63;5066901;28;20256;-75
2023/09/23 03:21:58;;;;;;;17.23;7.60;;;;;;;19.01;100.00;95280.34;5055509;28;20294;-76
2023/09/23 03:24:26;;;;;;;26.03;7.77;;;;;;;18.96;100.00;95282.13;5059029;28;20252;-75
2023/09/23 03:26:58;;;;;;;20.77;7.83;;;;;;;18.90;100.00;95283.09;5037930;28;20228;-76
2023/09/23 03:29:27;;;;;;;27.30;8.10;;;;;;;18.86;100.00;95288.09;5060963;28;20234;-75
2023/09/23 03:31:53;;;;;;;21.90;7.97;;;;;;;18.86;100.00;95292.56;5053065;28;20243;-75
2023/09/23 03:34:21;;;;;;;23.80;8.27;;;;;;;18.78;100.00;95285.81;5033305;28;20228;-75
2023/09/23 03:36:47;;;;;;;19.83;7.40;;;;;;;18.80;100.00;95284.53;5053447;28;20242;-75
2023/09/23 03:39:12;;;;;;;27.03;7.60;;;;;;;18.97;100.00;95286.38;5061767;28;20225;-75
2023/09/23 03:41:38;;;;;;;23.73;8.30;;;;;;;18.70;100.00;95278.28;5076985;28;20233;-74
2023/09/23 03:44:07;;;;;;;25.60;7.97;;;;;;;18.78;100.00;95278.69;5052962;28;20792;-75
2023/09/23 03:46:33;;;;;;;19.93;8.60;;;;;;;18.91;100.00;95284.69;5045316;28;20244;-75
2023/09/23 03:49:00;;;;;;;18.40;8.00;;;;;;;18.86;100.00;95288.09;5046104;28;20229;-75
2023/09/23 03:51:26;;;;;;;20.23;7.80;;;;;;;18.69;100.00;95284.63;5063608;28;20224;-75
2023/09/23 03:53:51;;;;;;;19.17;7.90;;;;;;;18.66;100.00;95288.56;5067363;28;20288;-74
2023/09/23 03:56:19;;;;;;;26.10;8.10;;;;;;;18.73;100.00;95288.38;5033115;28;20312;-74
2023/09/23 03:58:44;;;;;;;27.80;8.07;;;;;;;18.66;100.00;95285.91;5043598;28;20243;-75
2023/09/23 04:01:13;;;;;;;26.43;8.13;;;;;;;18.74;100.00;95293.47;5052094;28;20803;-75
2023/09/23 04:03:42;;;;;;;22.37;7.83;;;;;;;18.51;100.00;95283.00;5057543;28;20259;-75
2023/09/23 04:06:08;;;;;;;20.57;7.87;;;;;;;18.23;100.00;95293.59;5054853;28;20654;-75
2023/09/23 04:08:33;;;;;;;24.30;7.90;;;;;;;18.39;100.00;95292.81;5039821;28;20245;-75
2023/09/23 04:11:05;;;;;;;20.97;7.57;;;;;;;18.47;100.00;95295.13;5054350;28;20799;-74
2023/09/23 04:13:31;;;;;;;21.30;7.97;;;;;;;18.31;100.00;95297.72;5067647;28;20224;-75
2023/09/23 04:16:02;;;;;;;20.23;7.47;;;;;;;18.52;100.00;95300.50;5049897;28;20221;-75
2023/09/23 04:18:31;;;;;;;18.27;7.70;;;;;;;18.60;100.00;95304.63;5069264;28;20224;-75
2023/09/23 04:21:03;;;;;;;21.93;8.40;;;;;;;18.51;100.00;95309.50;5072844;28;20228;-75
2023/09/23 04:23:29;;;;;;;18.23;8.33;;;;;;;18.49;100.00;95313.44;5076497;28;20232;-75
2023/09/23 04:25:55;;;;;;;24.00;7.83;;;;;;;18.30;100.00;95320.75;5048440;28;20658;-75
2023/09/23 04:28:20;;;;;;;28.97;8.50;;;;;;;18.51;100.00;95320.09;5064904;28;20232;-75
2023/09/23 04:30:46;;;;;;;18.93;8.23;;;;;;;18.32;100.00;95325.84;5069389;28;20232;-75
2023/09/23 04:33:12;;;;;;;20.77;7.93;;;;;;;18.50;100.00;95330.97;5070781;28;20241;-75
2023/09/23 04:35:38;;;;;;;26.10;8.53;;;;;;;18.61;100.00;95332.72;5069300;28;20238;-75
2023/09/23 04:38:03;;;;;;;25.47;8.63;;;;;;;18.65;100.00;95345.28;5067439;28;20233;-74
2023/09/23 04:40:29;;;;;;;25.33;7.73;;;;;;;18.72;100.00;95345.13;5068770;28;20842;-74
2023/09/23 04:42:55;;;;;;;21.57;8.37;;;;;;;18.51;100.00;95348.47;5053504;28;20232;-75
2023/09/23 04:45:20;;;;;;;23.70;7.87;;;;;;;18.67;100.00;95343.22;5055862;28;20787;-75
2023/09/23 04:47:50;;;;;;;22.37;8.47;;;;;;;18.66;100.00;95344.25;5069979;28;20236;-75
2023/09/23 04:50:19;;;;;;;25.83;8.60;;;;;;;18.47;100.00;95344.69;5051176;28;20613;-75
2023/09/23 04:52:46;;;;;;;24.50;8.57;;;;;;;18.64;100.00;95343.69;5063528;28;20238;-75
2023/09/23 04:55:12;;;;;;;32.10;9.93;;;;;;;18.80;100.00;95353.50;5029021;28;20236;-75
2023/09/23 04:57:37;;;;;;;27.80;9.00;;;;;;;18.63;100.00;95357.97;5062253;28;20809;-75
2023/09/23 05:00:04;;;;;;;23.77;9.40;;;;;;;18.53;100.00;95354.34;5065521;28;20229;-75
2023/09/23 05:02:30;;;;;;;24.67;9.17;;;;;;;18.54;100.00;95356.75;5033501;28;20704;-75
2023/09/23 05:04:55;;;;;;;26.33;10.13;;;;;;;18.51;100.00;95356.44;5062611;28;20305;-76
2023/09/23 05:07:23;;;;;;;28.37;10.20;;;;;;;18.55;100.00;95354.91;5051907;28;20225;-75
2023/09/23 05:09:49;;;;;;;25.57;9.73;;;;;;;18.74;100.00;95357.13;5056711;28;20231;-75
2023/09/23 05:12:14;;;;;;;26.93;9.67;;;;;;;18.87;100.00;95355.22;5068934;28;20224;-75
2023/09/23 05:14:40;;;;;;;22.67;10.27;;;;;;;18.81;100.00;95347.16;5029947;28;20245;-75
2023/09/23 05:17:05;;;;;;;26.00;9.77;;;;;;;18.94;100.00;95346.03;5058323;28;20279;-74
2023/09/23 05:19:32;;;;;;;28.23;10.70;;;;;;;19.06;100.00;95349.41;5041011;28;20670;-74
2023/09/23 05:21:58;;;;;;;28.23;10.07;;;;;;;18.90;100.00;95350.22;5043629;28;20229;-75
2023/09/23 05:24:26;;;;;;;22.70;9.73;;;;;;;18.95;100.00;95352.13;5041430;28;20726;-75
2023/09/23 05:26:54;;;;;;;22.60;9.57;;;;;;;19.08;100.00;95359.78;5062272;28;20229;-75
2023/09/23 05:29:20;;;;;;;26.80;10.10;;;;;;;19.12;100.00;95366.22;5072902;28;20730;-75
2023/09/23 05:31:46;;;;;;;29.53;9.43;;;;;;;19.17;100.00;95361.00;5064953;28;20228;-75
2023/09/23 05:34:11;;;;;;;29.57;10.27;;;;;;;19.04;100.00;95356.81;5066273;28;20263;-74
2023/09/23 05:36:37;;;;;;;22.87;10.07;;;;;;;18.96;100.00;95354.56;5058342;28;20268;-75
2023/09/23 05:39:08;;;;;;;27.80;10.10;;;;;;;19.19;100.00;95351.75;5054836;28;20235;-74
2023/09/23 05:41:33;;;;;;;24.80;9.57;;;;;;;19.21;100.00;95354.97;5069844;28;20803;-75
2023/09/23 05:43:59;;;;;;;26.50;10.00;;;;;;;19.37;100.00;95358.66;5060556;28;20231;-75
2023/09/23 05:46:27;;;;;;;21.20;9.90;;;;;;;19.54;100.00;95359.44;5065228;28;20228;-76
2023/09/23 05:48:53;;;;;;;25.63;9.90;;;;;;;19.55;100.00;95360.25;5031789;28;20240;-76
2023/09/23 05:51:19;;;;;;;26.33;9.13;;;;;;;19.47;100.00;95354.31;5064461;28;20229;-75
2023/09/23 05:53:45;;;;;;;29.17;10.03;;;;;;;19.63;100.00;95367.81;5071423;28;20243;-75
2023/09/23 05:56:10;;;;;;;27.67;10.63;;;;;;;19.63;100.00;95363.28;5053245;28;20701;-75
2023/09/23 05:58:36;;;;;;;29.43;10.53;;;;;;;19.65;100.00;95371.84;5056404;28;20620;-76
2023/09/23 06:01:01;;;;;;;32.73;10.73;;;;;;;19.81;99.86;95375.50;5067021;28;20230;-75
2023/09/23 06:03:27;;;;;;;33.63;11.40;;;;;;;19.61;100.00;95369.94;5068626;28;20706;-75
2023/09/23 06:05:52;;;;;;;31.73;10.20;;;;;;;19.84;100.00;95373.19;5050383;28;20229;-76
2023/09/23 06:08:18;;;;;;;26.93;10.67;;;;;;;19.91;99.18;95375.66;5054917;28;20220;-76
2023/09/23 06:10:43;;;;;;;28.60;11.00;;;;;;;19.99;98.19;95372.56;5058721;28;20228;-75
2023/09/23 06:13:12;;;;;;;27.03;10.90;;;;;;;20.01;97.81;95373.13;5055272;28;20692;-75
2023/09/23 06:15:37;;;;;;;25.40;10.10;;;;;;;20.01;99.20;95370.47;5062189;28;20225;-76
2023/09/23 06:18:03;;;;;;;32.67;10.13;;;;;;;20.08;98.93;95384.38;5064100;28;20259;-74
2023/09/23 06:20:29;;;;;;;30.33;10.20;;;;;;;20.16;97.20;95379.41;5068297;28;20629;-75
2023/09/23 06:22:54;;;;;;;31.27;10.70;;;;;;;20.24;96.51;95385.38;5065903;28;20221;-74
2023/09/23 06:25:20;;;;;;;28.17;11.23;;;;;;;20.37;95.32;95379.69;5050512;28;20923;-76
2023/09/23 06:27:46;;;;;;;27.97;11.20;;;;;;;20.47;95.37;95383.25;5052594;28;20320;-76
2023/09/23 06:30:15;;;;;;;34.20;12.37;;;;;;;20.45;94.94;95387.22;5046343;28;20324;-76
2023/09/23 06:32:41;;;;;;;34.57;11.70;;;;;;;20.47;94.27;95382.44;5059654;28;20228;-76
2023/09/23 06:35:08;;;;;;;32.80;11.80;;;;;;;20.57;93.87;95379.91;5072524;28;20896;-76
2023/09/23 06:37:33;;;;;;;31.93;12.30;;;;;;;20.57;93.48;95385.22;5055891;28;20230;-74
2023/09/23 06:39:59;;;;;;;32.80;11.97;;;;;;;20.73;93.55;95385.13;5068346;28;20256;-76
2023/09/23 06:42:24;;;;;;;30.00;12.00;;;;;;;20.71;93.68;95386.44;5067851;28;20307;-76
2023/09/23 06:44:50;;;;;;;31.20;11.93;;;;;;;20.85;93.17;95392.19;5045735;28;20233;-76
2023/09/23 06:47:15;;;;;;;33.80;12.63;;;;;;;20.87;92.81;95390.88;5052508;28;20229;-76
2023/09/23 06:49:41;;;;;;;27.33;11.50;;;;;;;20.95;92.77;95390.41;5069931;28;20225;-76
2023/09/23 06:52:06;;;;;;;26.80;11.77;;;;;;;21.00;92.49;95390.44;5058822;28;20725;-76
2023/09/23 06:54:32;;;;;;;33.53;12.57;;;;;;;21.08;92.60;95400.69;5049003;28;20247;-76
2023/09/23 06:56:58;;;;;;;26.70;12.30;;;;;;;21.19;92.08;95399.69;5044149;28;20318;-76
2023/09/23 06:59:24;;;;;;;33.13;12.23;;;;;;;21.27;92.10;95407.25;5063114;28;20863;-76
2023/09/23 07:01:49;;;;;;;33.77;11.53;;;;;;;21.33;91.32;95403.53;5066992;28;20229;-76
2023/09/23 07:04:15;;;;;;;31.40;12.07;;;;;;;21.41;91.21;95396.94;5068462;28;20303;-76
2023/09/23 07:06:40;;;;;;;41.30;13.70;;;;;;;21.52;92.41;95389.84;5070517;28;20321;-76
2023/09/23 07:09:07;;;;;;;35.83;12.73;;;;;;;21.54;90.09;95403.72;5063617;28;20230;-75
2023/09/23 07:11:33;;;;;;;30.40;12.00;;;;;;;21.59;89.55;95401.09;5046683;28;20251;-75
2023/09/23 07:14:00;;;;;;;33.07;11.20;;;;;;;21.64;89.10;95401.91;5051008;28;20224;-76
2023/09/23 07:16:26;;;;;;;30.63;10.90;;;;;;;21.70;87.88;95406.22;5047694;28;20229;-76
2023/09/23 07:18:51;;;;;;;27.83;10.60;;;;;;;21.84;87.51;95410.06;5057682;28;20227;-76
2023/09/23 07:21:17;;;;;;;27.77;9.80;;;;;;;21.91;87.80;95412.50;5053162;28;20279;-77
2023/09/23 07:23:42;;;;;;;26.50;9.50;;;;;;;22.02;86.70;95408.81;5050526;28;20240;-76
2023/09/23 07:26:08;;;;;;;25.63;9.27;;;;;;;21.96;86.59;95413.34;5062909;28;20259;-76
2023/09/23 07:28:34;;;;;;;28.33;9.20;;;;;;;22.03;86.21;95413.13;5056876;28;20313;-76
2023/09/23 07:31:00;;;;;;;29.25;9.52;;;;;;;22.09;86.04;95407.53;5056016;28;20315;-76
2023/09/23 07:33:25;;;;;;;25.27;9.07;;;;;;;22.09;85.68;95406.75;5047176;28;20273;-76
2023/09/23 07:35:51;;;;;;;24.50;8.70;;;;;;;22.21;85.20;95407.31;5070512;28;20233;-77
2023/09/23 07:38:17;;;;;;;26.02;8.77;;;;;;;22.35;84.97;95408.47;5066491;28;20326;-76
2023/09/23 07:40:42;;;;;;;23.55;8.32;;;;;;;22.39;83.34;95406.88;5069591;28;20312;-76
2023/09/23 07:43:08;;;;;;;26.67;8.50;;;;;;;22.47;84.04;95406.41;5055554;28;20239;-76
2023/09/23 07:45:34;;;;;;;28.70;8.65;;;;;;;22.58;83.30;95401.88;5036250;28;20249;-75
2023/09/23 07:47:59;;;;;;;27.15;8.27;;;;;;;22.69;82.53;95399.00;5053994;28;20717;-75
2023/09/23 07:50:25;;;;;;;24.58;7.78;;;;;;;22.78;81.89;95399.31;5069134;28;20595;-76
2023/09/23 07:52:50;;;;;;;28.70;8.40;;;;;;;22.80;82.41;95399.84;5055737;28;20405;-75
2023/09/23 07:55:16;;;;;;;22.38;8.40;;;;;;;22.88;82.15;95404.66;5068363;28;20311;-76
2023/09/23 07:57:42;;;;;;;25.88;8.30;;;;;;;22.99;79.08;95397.47;5046056;28;20232;-76
2023/09/23 08:00:08;;;;;;;22.38;8.00;;;;;;;23.08;79.87;95399.34;5056310;28;20293;-76
2023/09/23 08:02:35;;;;;;;25.70;8.30;;;;;;;22.92;80.29;95397.72;5063663;28;20239;-76
2023/09/23 08:05:04;;;;;;;27.65;8.13;;;;;;;22.86;79.99;95400.63;5039380;28;20232;-75
2023/09/23 08:07:30;;;;;;;29.15;7.63;;;;;;;23.00;79.86;95394.53;5039251;28;20247;-74
2023/09/23 08:09:57;;;;;;;19.67;7.80;;;;;;;23.12;80.28;95391.63;5053772;28;20291;-76
2023/09/23 08:12:23;;;;;;;25.40;8.00;;;;;;;23.07;80.38;95395.06;5048127;28;20298;-76
2023/09/23 08:14:48;;;;;;;25.42;7.97;;;;;;;23.24;79.96;95384.13;5051046;28;20232;-75
2023/09/23 08:17:14;;;;;;;28.25;8.30;;;;;;;23.33;79.83;95379.88;5057811;28;20232;-75
2023/09/23 08:19:40;;;;;;;26.48;8.02;;;;;;;23.36;78.85;95382.03;5069438;28;20227;-76
2023/09/23 08:22:06;;;;;;;39.28;9.13;;;;;;;23.44;79.05;95382.31;5047488;28;20232;-76
2023/09/23 08:24:32;;;;;;;24.90;8.32;;;;;;;23.62;79.41;95375.59;5047953;28;20228;-75
2023/09/23 08:26:58;;;;;;;34.45;9.80;;;;;;;23.60;78.30;95377.72;5065353;28;20282;-76
2023/09/23 08:29:24;;;;;;;26.77;8.50;;;;;;;23.63;78.20;95376.38;5045927;28;20308;-76
2023/09/23 08:31:50;;;;;;;33.22;8.93;;;;;;;23.57;78.31;95372.94;5050405;28;20237;-76
2023/09/23 08:34:17;;;;;;;29.38;8.57;;;;;;;23.79;77.64;95376.09;5021291;28;20236;-76
2023/09/23 08:36:42;;;;;;;21.15;8.00;;;;;;;23.95;77.98;95376.88;5065343;28;20295;-76
2023/09/23 08:39:09;;;;;;;24.23;7.88;;;;;;;24.14;75.86;95372.56;5046679;28;20247;-76
2023/09/23 08:41:35;;;;;;;27.33;7.82;;;;;;;24.36;73.60;95374.91;5063455;28;20595;-75
2023/09/23 08:44:07;;;;;;;25.02;7.50;;;;;;;24.33;74.23;95370.09;5035939;28;20240;-76
2023/09/23 08:46:33;;;;;;;26.33;7.95;;;;;;;24.32;74.26;95379.97;5031650;28;20630;-76
2023/09/23 08:48:59;;;;;;;22.15;7.00;;;;;;;24.50;71.79;95371.34;5044807;28;20254;-76
2023/09/23 08:51:25;;;;;;;27.30;7.35;;;;;;;24.64;71.86;95368.88;5044289;28;20232;-75
2023/09/23 08:53:51;;;;;;;27.25;7.22;;;;;;;24.68;70.86;95369.91;5050586;28;20954;-75
2023/09/23 08:56:17;;;;;;;25.52;7.38;;;;;;;24.73;71.26;95367.19;5060069;28;20229;-76
2023/09/23 08:58:43;;;;;;;24.15;7.30;;;;;;;24.71;70.89;95369.34;5047253;28;20316;-76
2023/09/23 09:01:10;;;;;;;23.27;7.10;;;;;;;24.56;71.79;95364.06;5037777;28;20221;-76
2023/09/23 09:03:38;;;;;;;28.95;6.88;;;;;;;24.83;68.41;95361.81;5067901;28;20605;-75
2023/09/23 09:06:17;;;;;;;25.55;7.20;;;;;;;25.07;68.09;95361.94;5049935;28;20228;-75
2023/09/23 09:08:43;;;;;;;20.45;6.97;;;;;;;25.03;69.07;95358.22;5050223;28;20231;-75
2023/09/23 09:11:09;;;;;;;28.25;7.07;;;;;;;25.14;68.02;95352.50;5045962;28;20233;-75
2023/09/23 09:13:36;;;;;;;25.02;6.80;;;;;;;25.17;68.47;95353.81;5048051;28;21267;-76
2023/09/23 09:16:05;;;;;;;27.05;6.80;;;;;;;25.37;67.18;95349.09;5064521;28;20224;-75
2023/09/23 09:18:31;;;;;;;20.77;5.90;;;;;;;25.36;67.58;95352.84;5064045;28;20255;-77
2023/09/23 09:20:56;;;;;;;26.08;6.30;;;;;;;25.40;66.59;95350.41;5039850;28;20225;-76
2023/09/23 09:23:29;;;;;;;27.40;6.47;;;;;;;25.58;66.11;95343.59;5034435;28;20304;-77
2023/09/23 09:25:55;;;;;;;21.58;6.22;;;;;;;25.66;66.17;95337.59;5034325;28;20421;-76
2023/09/23 09:28:20;;;;;;;20.27;6.00;;;;;;;25.89;64.60;95345.66;5061927;28;20717;-76
2023/09/23 09:30:49;;;;;;;25.15;6.25;;;;;;;25.97;63.51;95347.72;5050316;28;20647;-76
2023/09/23 09:33:15;;;;;;;33.53;6.38;;;;;;;26.21;63.15;95339.69;5042708;28;20812;-76
2023/09/23 09:35:41;;;;;;;25.25;6.07;;;;;;;26.21;62.72;95339.69;5040927;28;20220;-76
2023/09/23 09:38:07;;;;;;;24.10;6.30;;;;;;;26.28;60.71;95336.66;5039557;28;20234;-75
2023/09/23 09:40:32;;;;;;;22.00;6.30;;;;;;;26.25;63.12;95332.66;5070225;28;20237;-76
2023/09/23 09:42:59;;;;;;;27.92;5.75;;;;;;;26.21;62.41;95325.47;5073339;28;20244;-76
2023/09/23 09:45:26;;;;;;;26.30;6.10;;;;;;;26.32;61.43;95327.72;5039743;28;20221;-76
2023/09/23 09:47:53;;;;;;;27.15;6.18;;;;;;;26.46;60.64;95333.22;5045835;28;20233;-77
2023/09/23 09:50:19;;;;;;;23.73;5.80;;;;;;;26.72;59.83;95326.41;5040868;28;20244;-76
2023/09/23 09:52:45;;;;;;;23.63;6.05;;;;;;;26.59;60.34;95322.56;5055052;28;20320;-76
2023/09/23 09:55:15;;;;;;;24.10;6.38;;;;;;;26.65;61.23;95318.69;5037455;28;20287;-76
2023/09/23 09:57:41;;;;;;;24.90;6.57;;;;;;;26.80;59.97;95306.19;5029553;28;20237;-76
2023/09/23 10:00:15;;;;;;;25.38;5.88;;;;;;;27.01;58.00;95308.25;5071185;28;20324;-76
2023/09/23 10:02:43;;;;;;;30.50;6.57;;;;;;;26.95;58.31;95308.63;5046210;28;20908;-76
2023/09/23 10:05:15;;;;;;;28.75;6.20;;;;;;;27.11;58.18;95305.41;5035547;28;20233;-76
2023/09/23 10:07:56;;;;;;;26.25;6.03;;;;;;;27.08;59.95;95302.50;5062389;28;20323;-76
2023/09/23 10:10:36;;;;;;;29.95;6.07;;;;;;;27.15;58.92;95297.56;5066031;28;20223;-76
2023/09/23 10:13:08;;;;;;;24.73;6.10;;;;;;;27.27;59.47;95295.22;5038007;28;20247;-76
2023/09/23 10:15:37;;;;;;;27.20;6.50;;;;;;;27.23;59.56;95283.44;5060016;28;20241;-76
2023/09/23 10:18:08;;;;;;;28.88;5.82;;;;;;;27.31;58.14;95280.06;5051512;28;20316;-75
2023/09/23 10:20:34;;;;;;;26.60;5.82;;;;;;;27.54;53.08;95278.38;5072814;28;20236;-75
2023/09/23 10:23:00;;;;;;;31.33;5.68;;;;;;;27.63;51.60;95276.59;5065457;28;20240;-75
2023/09/23 10:25:47;;;;;;;26.25;5.70;;;;;;;27.66;55.27;95268.69;5050525;28;21003;-76
2023/09/23 10:28:28;;;;;;;23.15;5.80;;;;;;;27.73;54.11;95271.78;5062602;28;20753;-76
2023/09/23 10:31:03;;;;;;;28.75;6.03;;;;;;;27.81;55.15;95262.22;5051642;28;20766;-76
2023/09/23 10:33:30;;;;;;;22.15;5.78;;;;;;;27.79;53.81;95267.91;5052404;28;20759;-77
2023/09/23 10:35:56;;;;;;;30.40;5.90;;;;;;;27.88;52.28;95271.50;5039236;28;20286;-76
2023/09/23 10:38:26;;;;;;;28.63;5.80;;;;;;;28.08;51.77;95264.16;5043381;28;20231;-76
2023/09/23 10:40:53;;;;;;;24.52;5.80;;;;;;;28.07;54.74;95259.84;5060678;28;20224;-76
2023/09/23 10:43:21;;;;;;;30.38;5.63;;;;;;;28.17;54.56;95254.25;5046003;28;20228;-78
2023/09/23 10:45:48;;;;;;;26.77;5.45;;;;;;;28.37;50.57;95253.84;5054430;28;20328;-76
2023/09/23 10:48:14;;;;;;;27.23;5.90;;;;;;;28.44;50.58;95248.84;5035749;28;20229;-76
2023/09/23 10:50:40;;;;;;;22.80;5.60;;;;;;;28.58;49.27;95246.88;5040752;28;20254;-77
2023/09/23 10:53:07;;;;;;;29.10;5.80;;;;;;;28.64;48.63;95245.69;5054431;28;20232;-76
2023/09/23 10:55:34;;;;;;;22.45;5.70;;;;;;;28.72;47.17;95242.28;5052654;28;20236;-77
2023/09/23 10:58:00;;;;;;;31.17;5.40;;;;;;;28.88;45.06;95237.31;5044395;28;20263;-76
2023/09/23 11:00:25;;;;;;;29.30;5.38;;;;;;;28.98;44.21;95237.88;5085065;28;20227;-75
2023/09/23 11:02:54;;;;;;;31.30;5.47;;;;;;;29.00;46.30;95226.75;5056759;28;20683;-77
2023/09/23 11:05:20;;;;;;;24.55;5.82;;;;;;;29.11;44.93;95234.28;5057670;28;20223;-77
2023/09/23 11:07:46;;;;;;;32.45;6.07;;;;;;;29.15;44.39;95221.00;5040592;28;20602;-76
2023/09/23 11:10:12;;;;;;;29.25;5.35;;;;;;;29.22;44.49;95216.00;5069985;28;20623;-76
2023/09/23 11:12:38;;;;;;;27.90;5.45;;;;;;;29.38;44.18;95221.81;5053975;28;20239;-76
2023/09/23 11:15:04;;;;;;;25.30;5.30;;;;;;;29.50;45.19;95206.59;5052017;28;20236;-77
2023/09/23 11:17:29;;;;;;;26.42;5.82;;;;;;;29.55;43.42;95208.38;5048490;28;20239;-76